Davison Army Air Field
KDAA : now visible

Airfield :











YOU CAN JOIN US ON...

 
LOGIN :

Register | Disclaimer

   EN    FR    IT 

 









Legend :    VFR   Marginal VFR   IFR   Intensive IFR   Very Intensive IFR
Visi :
Ceiling :
>= 8 km
>= 3000ft
5 to 8 km
1000 to 3000 ft
1500m to 5 km
500 to 1000 ft
800 to 1500m
200 to 500 ft
< 800m
< 200 ft
Symbols :   Thunderstorms  Fog  Heavy snow  Heavy precipitations  Wind > 20 kt






- Airport Elevation : 73 ft


KDAA - Davison Army Air Field

CURRENT METAR :
  • 121956Z AUTO 20004KT 10SM CLR 05/M09 A3066 RMK AO2 SLP386 T00451093 $

EXPIRED METARs :
  • 121856Z AUTO 00000KT 10SM CLR 04/M09 A3068 RMK AO2 SLP393 T00411093 $
  • 121756Z AUTO 00000KT 10SM CLR 03/M09 A3070 RMK AO2 SLP400 T00331093 10035 21039 58018 $

TAF TAF KDAA
Valid from the 12 at 18:00 until the 14 at 00:00 UTC


121800Z 1218/1324 VRB06KT 9999 SKC QNH3070INS
BECMG 1301/1302 VRB06KT 9999 OVC020 QNH3038INS
BECMG 1313/1314 35006KT 9999 OVC015 QNH3029INS
BECMG 1316/1317 33006KT 9000 -RA BR OVC007 QNH3006INS
BECMG 1323/1324 36006KT 8000 -RA BR OVC005 QNH3005INS TX03/1218Z TN00/1303Z



MET'MAP, your aeronautical weather chart ! - Copyright ORBIFLY December 2007 - Disclaimer

ORBIFLY MET'MAP TEAM :

Programming & Development : Alexandra Zaïnal
Concept & original design : Baudouin d'Aumeries
Assistance for programming : Marc-Olivier Méhu
Technical & hardware support : Manuel Goepfert

Contact : metmap@orbifly.com




SOURCES & CREDITS :

   NOAA       Earth
Advisory